Latest Weather Observations for Lombadina

IDW60801

Issued at 12:33 pm WST Thursday 29 September 2016 (issued every 30 minutes, with the page automatically refreshed every 10 minutes)

About weather observations | Map of weather stations | Latest weather observations for WA | Other Formats
Station Details ID: 503016 Name: LOMBADINA AIRSTRIP Lat: -16.52 Lon: 122.92 Height: 42.0 m
Data from the previous 72 hours. | See also: Recent months for locations in Western Australia
Date/Time
WST
Temp
°C
App
Temp
°C
Dew
Point
°C
Rel
Hum
%
Delta-T
°C
Wind Press
QNH
hPa
Press
MSL
hPa
Rain since
9am
mm
Dir  Spd
km/h
Gust
km/h
Spd
kts
Gust
kts
29/12:30pm 32.6 28.6 10.6 26 12.7 SE 22 33 12 18 1009.1 1008.8 0.0
29/12:00pm 32.3 28.8 10.9 27 12.4 SE 20 35 11 19 1009.5 1009.2 0.0
29/11:30am 31.8 28.7 11.6 29 11.8 SE 19 32 10 17 1010.1 1009.8 0.0
29/11:00am 31.6 28.3 10.9 28 12.0 SE 19 33 10 18 1010.3 1010.0 0.0
29/10:30am 31.2 28.0 11.1 29 11.6 SE 19 33 10 18 1011.0 1010.7 0.0
29/10:00am 30.9 28.0 12.3 32 11.0 SE 19 35 10 19 1011.3 1011.0 0.0
29/09:30am 31.5 28.4 12.3 31 11.3 SE 20 35 11 19 1011.3 1011.0 0.0
29/09:00am 30.8 29.2 14.0 36 10.2 SE 15 26 8 14 1011.5 1011.2 0.0
29/08:30am 30.3 29.8 16.0 42 8.9 SE 13 24 7 13 1011.6 1011.3 0.0
29/08:00am 28.9 28.9 17.1 49 7.4 SE 13 26 7 14 1011.5 1011.2 0.0
29/07:30am 28.5 29.2 17.1 50 7.2 SE 9 19 5 10 1011.2 1010.9 0.0
29/07:00am 26.7 28.3 17.8 58 5.6 SE 6 13 3 7 1011.1 1010.8 0.0
29/06:30am 26.3 27.9 17.9 60 5.3 SE 6 11 3 6 1010.6 1010.3 0.0
29/06:00am 25.5 27.3 18.2 64 4.6 SE 6 13 3 7 1010.2 1009.9 0.0
29/05:30am 24.7 26.5 18.2 67 4.1 SE 6 9 3 5 1009.9 1009.6 0.0
29/05:00am 25.0 26.8 18.2 66 4.3 SE 6 11 3 6 1009.6 1009.3 0.0
29/04:30am 25.1 27.0 18.5 67 4.2 SE 6 11 3 6 1009.5 1009.2 0.0
29/04:00am 24.6 26.9 18.5 69 3.9 SE 4 7 2 4 1009.4 1009.1 0.0
29/03:30am 25.1 27.0 18.5 67 4.2 SSE 6 9 3 5 1009.3 1009.0 0.0
29/03:00am 25.2 27.4 19.3 70 3.8 SSE 6 13 3 7 1009.3 1009.0 0.0
29/02:30am 25.0 27.8 20.5 76 2.9 SE 6 9 3 5 1009.3 1009.0 0.0
29/02:00am 25.3 28.5 21.2 78 2.7 SSE 6 11 3 6 1009.5 1009.2 0.0
29/01:30am 25.0 29.5 22.9 88 1.4 SSE 4 9 2 5 1009.8 1009.5 0.0
29/01:00am 25.1 29.9 23.5 91 1.1 SE 4 9 2 5 1009.9 1009.6 0.0
29/12:30am 25.2 29.7 23.6 91 1.1 SE 6 9 3 5 1010.2 1009.9 0.0
29/12:00am 25.4 29.8 23.5 89 1.3 SE 6 9 3 5 1010.4 1010.1 0.0
 
Date/Time
WST
Temp
°C
App
Temp
°C
Dew
Point
°C
Rel
Hum
%
Delta-T
°C
Wind Press
QNH
hPa
Press
MSL
hPa
Rain since
9am
mm
Dir  Spd
km/h
Gust
km/h
Spd
kts
Gust
kts
28/11:30pm 25.0 30.7 23.8 93 0.8 CALM 0 4 0 2 1010.6 1010.3 0.0
28/11:00pm 24.9 30.1 23.5 92 1.0 S 2 6 1 3 1010.8 1010.5 0.0
28/10:30pm 25.7 31.6 24.1 91 1.1 CALM 0 4 0 2 1010.9 1010.6 0.0
28/10:00pm 25.8 30.5 24.0 90 1.2 SSW 6 7 3 4 1011.1 1010.8 0.0
28/09:30pm 26.4 31.3 24.4 89 1.4 WSW 6 11 3 6 1011.0 1010.7 0.0
28/09:00pm 26.5 31.4 24.3 88 1.5 W 6 11 3 6 1010.9 1010.6 0.0
28/08:30pm 26.6 31.2 24.1 86 1.7 W 7 15 4 8 1010.9 1010.6 0.0
28/08:00pm 26.8 31.1 23.7 83 2.1 W 7 11 4 6 1010.6 1010.3 0.0
28/07:30pm 26.9 31.0 23.2 80 2.5 W 7 13 4 7 1010.4 1010.1 0.0
28/07:00pm 27.0 30.7 22.6 77 3.0 W 7 13 4 7 1010.2 1009.9 0.0
28/06:30pm 27.2 30.7 22.8 77 3.0 W 9 15 5 8 1010.0 1009.7 0.0
28/06:00pm 27.2 30.5 22.6 76 3.1 W 9 17 5 9 1009.8 1009.5 0.0
28/05:30pm 27.8 30.7 21.8 70 4.0 W 9 19 5 10 1009.4 1009.1 0.0
28/05:00pm 28.5 31.1 22.0 68 4.4 WNW 11 17 6 9 1009.0 1008.7 0.0
28/04:30pm 29.0 31.6 22.0 66 4.7 NW 11 17 6 9 1008.8 1008.5 0.0
28/04:00pm 29.6 32.5 23.1 68 4.5 NW 13 20 7 11 1008.6 1008.3 0.0
28/03:30pm 29.6 32.3 22.8 67 4.6 NW 13 20 7 11 1008.6 1008.3 0.0
28/03:00pm 29.9 32.7 22.3 63 5.2 WNW 11 19 6 10 1008.8 1008.5 0.0
28/02:30pm 30.4 32.8 22.3 62 5.5 NW 13 19 7 10 1009.0 1008.7 0.0
28/02:00pm 31.6 34.2 22.0 56 6.5 WNW 11 19 6 10 1009.3 1009.0 0.0
28/01:30pm 32.3 33.4 17.0 40 9.7 ENE 7 17 4 9 1009.6 1009.3 0.0
28/01:00pm 32.2 33.3 18.0 42 9.2 ESE 9 19 5 10 1010.0 1009.7 0.0
28/12:30pm 31.5 30.9 16.6 40 9.4 E 15 24 8 13 1010.6 1010.3 0.0
28/12:00pm 31.6 31.9 17.1 41 9.2 E 11 24 6 13 1011.0 1010.7 0.0
28/11:30am 30.9 31.6 17.9 45 8.3 E 11 20 6 11 1011.4 1011.1 0.0
28/11:00am 30.5 31.1 18.6 49 7.7 ESE 13 22 7 12 1011.7 1011.5 0.0
28/10:30am 30.4 31.6 19.1 50 7.4 ESE 11 20 6 11 1012.1 1011.9 0.0
28/10:00am 30.7 32.2 19.7 52 7.2 ESE 11 19 6 10 1012.2 1012.0 0.0
28/09:30am 31.2 33.0 19.5 49 7.7 SE 9 19 5 10 1012.4 1012.2 0.0
28/09:00am 30.0 32.2 20.3 56 6.4 SSE 9 22 5 12 1012.6 1012.4 0.0
28/08:30am 28.6 30.3 20.1 60 5.6 SSE 11 20 6 11 1012.9 1012.7 0.0
28/08:00am 27.9 29.9 20.7 65 4.8 SSW 11 19 6 10 1012.8 1012.6 0.0
28/07:30am 26.9 29.9 21.9 74 3.4 SSW 9 20 5 11 1012.7 1012.5 0.0
28/07:00am 25.9 29.7 22.8 83 2.1 SSW 7 11 4 6 1012.3 1012.1 0.0
28/06:30am 24.4 28.4 22.8 91 1.1 S 6 9 3 5 1011.9 1011.7 0.0
28/06:00am 23.0 27.4 22.8 99 0.1 SSE 4 6 2 3 1011.5 1011.2 0.0
28/05:30am 22.3 26.5 21.8 97 0.3 SE 2 4 1 2 1011.0 1010.7 0.0
28/05:00am 22.9 27.4 22.2 96 0.5 SSE 2 4 1 2 1010.6 1010.3 0.0
28/04:30am 23.6 28.3 22.6 94 0.7 SSW 2 6 1 3 1010.3 1010.0 0.0
28/04:00am 24.0 28.4 22.8 93 0.8 SSW 4 7 2 4 1010.0 1009.7 0.0
28/03:30am 24.3 28.8 22.9 92 0.9 SW 4 7 2 4 1009.7 1009.4 0.0
28/03:00am 24.6 28.8 23.2 92 1.0 WSW 6 11 3 6 1009.7 1009.4 0.0
28/02:30am 24.7 28.3 23.1 91 1.1 WSW 9 15 5 8 1009.8 1009.5 0.0
28/02:00am 24.7 28.2 22.9 90 1.2 WSW 9 15 5 8 1009.9 1009.6 0.0
28/01:30am 24.9 28.4 22.8 88 1.4 WSW 9 17 5 9 1010.0 1009.7 0.0
28/01:00am 24.9 28.0 22.8 88 1.4 WSW 11 19 6 10 1010.3 1010.0 0.0
28/12:30am 24.9 28.5 23.1 90 1.2 WSW 9 19 5 10 1010.6 1010.3 0.0
28/12:00am 24.9 28.5 23.1 90 1.2 WSW 9 19 5 10 1011.0 1010.7 0.0
 
Date/Time
WST
Temp
°C
App
Temp
°C
Dew
Point
°C
Rel
Hum
%
Delta-T
°C
Wind Press
QNH
hPa
Press
MSL
hPa
Rain since
9am
mm
Dir  Spd
km/h
Gust
km/h
Spd
kts
Gust
kts
27/11:30pm 24.9 28.9 23.1 90 1.2 WSW 7 15 4 8 1011.3 1011.0 0.0
27/11:00pm 25.0 29.1 23.2 90 1.2 WSW 7 13 4 7 1011.5 1011.2 0.0
27/10:30pm 25.1 29.0 23.0 88 1.4 WSW 7 15 4 8 1011.8 1011.6 0.0
27/10:00pm 25.2 29.3 22.9 87 1.6 WSW 6 11 3 6 1012.2 1012.0 0.0
27/09:30pm 25.4 29.2 22.7 85 1.8 WSW 7 13 4 7 1012.2 1012.0 0.0
27/09:00pm 25.5 29.4 22.6 84 2.0 WSW 6 11 3 6 1012.0 1011.8 0.0
27/08:30pm 25.7 29.6 22.6 83 2.1 WSW 6 11 3 6 1011.8 1011.6 0.0
27/08:00pm 25.8 29.7 22.5 82 2.2 WSW 6 11 3 6 1011.5 1011.2 0.0
27/07:30pm 26.0 29.7 22.5 81 2.4 WSW 7 13 4 7 1011.4 1011.1 0.0
27/07:00pm 26.1 29.8 22.6 81 2.4 WSW 7 15 4 8 1011.1 1010.8 0.0
27/06:30pm 26.3 29.8 22.8 81 2.4 WSW 9 17 5 9 1010.8 1010.5 0.0
27/06:00pm 26.5 29.8 22.6 79 2.6 WSW 9 20 5 11 1010.3 1010.0 0.0
27/05:30pm 26.8 29.4 22.6 78 2.8 WSW 13 22 7 12 1009.9 1009.6 0.0
27/05:00pm 27.6 29.6 22.3 73 3.6 WSW 15 24 8 13 1009.5 1009.2 0.0
27/04:30pm 28.4 30.6 21.9 68 4.4 W 13 24 7 13 1009.2 1008.9 0.0
27/04:00pm 28.5 29.9 21.8 67 4.5 WNW 17 24 9 13 1008.9 1008.6 0.0
27/03:30pm 29.0 30.7 21.7 64 4.9 W 15 22 8 12 1008.7 1008.4 0.0
27/03:00pm 30.6 31.7 20.5 54 6.7 WNW 15 22 8 12 1008.6 1008.3 0.0
27/02:30pm 30.5 31.1 19.5 51 7.2 WNW 15 26 8 14 1008.7 1008.4 0.0
27/02:00pm 30.0 30.4 19.1 52 7.1 WNW 15 24 8 13 1008.9 1008.6 0.0
27/01:30pm 31.0 31.3 19.7 51 7.4 WNW 17 26 9 14 1009.1 1008.8 0.0
27/01:00pm 30.7 30.6 18.8 49 7.7 WNW 17 24 9 13 1009.4 1009.1 0.0
27/12:30pm 32.0 31.6 17.1 41 9.5 WNW 15 22 8 12 1009.8 1009.5 0.0
27/12:00pm 31.7 32.5 17.2 42 9.2 WNW 9 24 5 13 1010.2 1009.9 0.0
27/11:30am 31.6 32.4 18.2 44 8.6 W 11 20 6 11 1010.7 1010.4 0.0
27/11:00am 30.0 31.1 19.7 54 6.8 WNW 13 20 7 11 1011.1 1010.8 0.0
27/10:30am 30.8 31.7 20.1 53 7.1 NW 15 20 8 11 1011.4 1011.1 0.0
27/10:00am 30.5 31.9 20.4 54 6.7 WNW 13 20 7 11 1011.8 1011.6 0.0
27/09:30am 30.8 32.6 18.8 48 7.8 NW 7 11 4 6 1012.1 1011.9 0.0
27/09:00am 29.8 32.5 20.6 57 6.1 SSW 7 15 4 8 1012.5 1012.3 0.0
27/08:30am 28.7 31.9 21.7 66 4.7 S 7 13 4 7 1012.7 1012.5 0.0
27/08:00am 27.8 30.6 21.6 69 4.2 SSW 9 15 5 8 1012.9 1012.7 0.0
27/07:30am 26.7 30.3 23.0 80 2.5 SW 9 17 5 9 1012.4 1012.2 0.0
27/07:00am 25.5 29.7 23.4 88 1.4 SW 7 13 4 7 1012.1 1011.9 0.0
27/06:30am 23.6 28.2 23.1 97 0.3 SW 4 7 2 4 1011.7 1011.5 0.0
27/06:00am 22.3 26.4 22.3 100 0.0 SW 4 7 2 4 1011.5 1011.2 0.0
27/05:30am 22.0 25.5 21.8 99 0.1 SW 6 7 3 4 1011.3 1011.0 0.0
27/05:00am 21.8 25.6 21.6 99 0.1 SW 4 6 2 3 1011.1 1010.8 0.0
27/04:30am 22.1 26.0 21.8 98 0.2 SW 4 6 2 3 1010.8 1010.5 0.0
27/04:00am 22.3 26.3 22.0 98 0.2 SW 4 6 2 3 1010.6 1010.3 0.0
27/03:30am 22.6 26.2 22.1 97 0.3 SW 6 7 3 4 1010.5 1010.2 0.0
27/03:00am 22.9 26.6 22.2 96 0.5 SW 6 11 3 6 1010.3 1010.0 0.0
27/02:30am 22.8 26.4 22.0 95 0.5 WSW 6 9 3 5 1010.4 1010.1 0.0
27/02:00am 23.2 26.9 22.2 94 0.7 WSW 6 9 3 5 1010.5 1010.2 0.0
27/01:30am 23.0 26.5 21.8 93 0.8 WSW 6 7 3 4 1010.6 1010.3 0.0
27/01:00am 23.0 26.3 21.5 91 1.0 WSW 6 9 3 5 1010.8 1010.5 0.0
27/12:30am 23.1 26.3 21.2 89 1.2 WSW 6 9 3 5 1010.9 1010.6 0.0
27/12:00am 23.3 26.3 20.8 86 1.6 WSW 6 11 3 6 1011.2 1010.9 0.0
 
Date/Time
WST
Temp
°C
App
Temp
°C
Dew
Point
°C
Rel
Hum
%
Delta-T
°C
Wind Press
QNH
hPa
Press
MSL
hPa
Rain since
9am
mm
Dir  Spd
km/h
Gust
km/h
Spd
kts
Gust
kts
26/11:30pm 23.8 26.8 20.9 84 1.9 WSW 6 11 3 6 1011.4 1011.1 0.0
26/11:00pm 24.2 26.4 20.5 80 2.4 WSW 9 17 5 9 1011.6 1011.3 0.0
26/10:30pm 24.4 27.0 20.5 79 2.5 WSW 7 15 4 8 1011.9 1011.7 0.0
26/10:00pm 24.4 27.4 20.9 81 2.3 WSW 6 11 3 6 1012.1 1011.9 0.0
26/09:30pm 24.6 27.7 21.1 81 2.3 WSW 6 11 3 6 1012.2 1012.0 0.0
26/09:00pm 24.9 28.2 21.4 81 2.3 WSW 6 13 3 7 1012.1 1011.9 0.0
26/08:30pm 25.0 28.1 21.5 81 2.3 WSW 7 13 4 7 1011.9 1011.7 0.0
26/08:00pm 25.3 28.1 21.6 80 2.5 WSW 9 17 5 9 1011.6 1011.3 0.0
26/07:30pm 25.3 28.1 21.6 80 2.5 WSW 9 17 5 9 1011.3 1011.0 0.0
26/07:00pm 25.6 28.5 21.7 79 2.6 WSW 9 20 5 11 1011.0 1010.7 0.0
26/06:30pm 25.8 28.2 21.5 77 2.9 WSW 11 19 6 10 1010.5 1010.2 0.0
26/06:00pm 26.2 28.5 21.4 75 3.2 WSW 11 20 6 11 1010.2 1009.9 0.0
26/05:30pm 26.8 29.1 21.3 72 3.7 WSW 11 22 6 12 1009.8 1009.5 0.0
26/05:00pm 27.6 29.8 21.2 68 4.3 WSW 11 22 6 12 1009.4 1009.1 0.0
26/04:30pm 28.2 29.8 21.5 67 4.5 W 15 26 8 14 1009.2 1008.9 0.0
26/04:00pm 28.5 29.9 21.8 67 4.5 W 17 30 9 16 1009.0 1008.7 0.0
26/03:30pm 28.4 29.5 21.9 68 4.4 W 19 35 10 19 1008.9 1008.6 0.0
26/03:00pm 28.9 29.7 21.4 64 5.0 W 19 32 10 17 1008.9 1008.6 0.0
26/02:30pm 28.6 29.5 20.9 63 5.1 W 17 30 9 16 1009.0 1008.7 0.0
26/02:00pm 29.7 31.0 21.6 61 5.5 WNW 17 26 9 14 1009.1 1008.8 0.0
26/01:30pm 30.1 31.8 21.7 60 5.7 W 15 28 8 15 1009.4 1009.1 0.0
26/01:00pm 28.9 29.9 21.7 65 4.8 WNW 19 30 10 16 1009.5 1009.2 0.0

Other Formats:

Comma delimited format used in spreadsheet applications
http://www.bom.gov.au/fwo/IDW60801/IDW60801.99206.axf

JavaScript Object Notation format (JSON) in row-major order
http://www.bom.gov.au/fwo/IDW60801/IDW60801.99206.json